createdAt,value
2022-12-05T00:00:47.766Z,0.20
2022-12-05T00:01:47.809Z,0.20
2022-12-05T00:02:47.768Z,0.20
2022-12-05T00:03:47.774Z,0.20
2022-12-05T00:04:47.714Z,0.20
2022-12-05T00:05:47.703Z,0.20
2022-12-05T00:06:47.691Z,0.20
2022-12-05T00:08:47.671Z,0.20
2022-12-05T00:09:47.653Z,0.20
2022-12-05T00:10:47.639Z,0.20
2022-12-05T00:11:47.626Z,0.20
2022-12-05T00:12:47.613Z,0.20
2022-12-05T00:13:47.601Z,0.20
2022-12-05T00:14:47.588Z,0.20
2022-12-05T00:15:47.580Z,0.20
2022-12-05T00:16:47.643Z,0.20
2022-12-05T00:17:47.552Z,0.20
2022-12-05T00:18:47.570Z,0.30
2022-12-05T00:19:49.062Z,0.20
2022-12-05T00:20:47.513Z,0.30
2022-12-05T00:21:47.503Z,0.20
2022-12-05T00:22:47.486Z,0.10
2022-12-05T00:23:47.477Z,0.20
2022-12-05T00:24:47.462Z,0.20
2022-12-05T00:25:47.450Z,0.30
2022-12-05T00:26:47.436Z,0.20
2022-12-05T00:27:47.424Z,0.20
2022-12-05T00:28:47.410Z,0.20
2022-12-05T00:29:47.399Z,0.20
2022-12-05T00:30:47.387Z,0.20
2022-12-05T00:31:47.450Z,0.20
2022-12-05T00:32:47.362Z,0.20
2022-12-05T00:33:47.351Z,0.20
2022-12-05T00:34:47.366Z,0.30
2022-12-05T00:35:47.327Z,0.20
2022-12-05T00:36:47.313Z,0.20
2022-12-05T00:37:47.305Z,0.30
2022-12-05T00:38:47.289Z,0.10
2022-12-05T00:39:47.280Z,0.20
2022-12-05T00:40:47.265Z,0.20
2022-12-05T00:41:47.255Z,0.20
2022-12-05T00:42:52.094Z,0.20
2022-12-05T00:43:47.231Z,0.30
2022-12-05T00:44:47.217Z,0.20
2022-12-05T00:45:47.307Z,0.20
2022-12-05T00:46:47.193Z,0.30
2022-12-05T00:47:47.183Z,0.20
2022-12-05T00:48:47.168Z,0.30
2022-12-05T00:49:47.156Z,0.20
2022-12-05T00:50:47.171Z,0.20
2022-12-05T00:51:47.132Z,0.20
2022-12-05T00:52:47.119Z,0.20
2022-12-05T00:53:47.109Z,0.30
2022-12-05T00:54:47.095Z,0.20
2022-12-05T00:55:47.084Z,0.30
2022-12-05T00:56:47.073Z,0.20
2022-12-05T00:57:47.061Z,0.20
2022-12-05T00:58:47.046Z,0.20
2022-12-05T00:59:47.037Z,0.20
2022-12-05T01:00:47.084Z,0.30
2022-12-05T01:01:47.065Z,0.20
2022-12-05T01:02:47.057Z,0.30
2022-12-05T01:03:46.989Z,0.30
2022-12-05T01:04:46.977Z,0.30
2022-12-05T01:05:46.964Z,0.30
2022-12-05T01:06:46.978Z,0.20
2022-12-05T01:07:47.007Z,0.30
2022-12-05T01:08:46.927Z,0.20
2022-12-05T01:09:46.915Z,0.30
2022-12-05T01:10:46.902Z,0.20
2022-12-05T01:11:46.894Z,0.30
2022-12-05T01:12:46.881Z,0.30
2022-12-05T01:13:46.865Z,0.30
2022-12-05T01:14:46.854Z,0.30
2022-12-05T01:15:46.842Z,0.30
2022-12-05T01:16:46.875Z,0.30
2022-12-05T01:17:46.823Z,0.30
2022-12-05T01:18:46.807Z,0.20
2022-12-05T01:19:46.792Z,0.30
2022-12-05T01:20:46.783Z,0.30
2022-12-05T01:21:46.773Z,0.30
2022-12-05T01:22:46.784Z,0.20
2022-12-05T01:23:46.746Z,0.30
2022-12-05T01:24:46.732Z,0.30
2022-12-05T01:25:46.719Z,0.20
2022-12-05T01:26:46.708Z,0.30
2022-12-05T01:27:46.697Z,0.30
2022-12-05T01:28:46.738Z,0.30
2022-12-05T01:29:46.671Z,0.30
2022-12-05T01:30:46.658Z,0.30
2022-12-05T01:31:46.705Z,0.30
2022-12-05T01:32:46.633Z,0.20
2022-12-05T01:33:46.622Z,0.30
2022-12-05T01:34:46.609Z,0.20
2022-12-05T01:35:46.598Z,0.30
2022-12-05T01:36:46.584Z,0.20
2022-12-05T01:37:46.573Z,0.30
2022-12-05T01:38:46.589Z,0.20
2022-12-05T01:39:46.548Z,0.30
2022-12-05T01:40:46.535Z,0.20
2022-12-05T01:41:46.524Z,0.30
2022-12-05T01:42:46.514Z,0.30
2022-12-05T01:43:46.501Z,0.20
2022-12-05T01:44:46.485Z,0.30
2022-12-05T01:45:46.551Z,0.20
2022-12-05T01:46:46.461Z,0.30
2022-12-05T01:47:46.450Z,0.20
2022-12-05T01:48:46.436Z,0.30
2022-12-05T01:49:46.426Z,0.30
2022-12-05T01:50:46.411Z,0.20
2022-12-05T01:51:46.398Z,0.30
2022-12-05T01:52:46.385Z,0.20
2022-12-05T01:53:46.380Z,0.30
2022-12-05T01:54:46.389Z,0.30
2022-12-05T01:55:46.349Z,0.30
2022-12-05T01:56:46.337Z,0.30
2022-12-05T01:57:46.330Z,0.20
2022-12-05T01:58:46.313Z,0.30
2022-12-05T01:59:46.300Z,0.30
2022-12-05T02:00:46.392Z,0.30
2022-12-05T02:01:46.300Z,0.30
2022-12-05T02:02:46.361Z,0.20
2022-12-05T02:03:46.252Z,0.30
2022-12-05T02:04:46.240Z,0.20
2022-12-05T02:05:46.231Z,0.30
2022-12-05T02:06:46.216Z,0.20
2022-12-05T02:07:46.269Z,0.30
2022-12-05T02:08:46.193Z,0.30
2022-12-05T02:09:46.180Z,0.30
2022-12-05T02:10:46.205Z,0.20
2022-12-05T02:11:46.158Z,0.20
2022-12-05T02:12:46.143Z,0.30
2022-12-05T02:13:46.131Z,0.20
2022-12-05T02:14:46.119Z,0.20
2022-12-05T02:15:46.108Z,0.20
2022-12-05T02:16:46.114Z,0.30
2022-12-05T02:17:46.083Z,0.30
2022-12-05T02:18:46.071Z,0.20
2022-12-05T02:19:46.059Z,0.30
2022-12-05T02:20:46.049Z,0.20
2022-12-05T02:21:46.035Z,0.30
2022-12-05T02:22:46.023Z,0.20
2022-12-05T02:23:46.010Z,0.30
2022-12-05T02:24:45.998Z,0.30
2022-12-05T02:25:45.986Z,0.20
2022-12-05T02:26:45.996Z,0.30
2022-12-05T02:27:45.965Z,0.20
2022-12-05T02:28:45.950Z,0.30
2022-12-05T02:29:45.939Z,0.30
2022-12-05T02:30:45.925Z,0.30
2022-12-05T02:31:45.934Z,0.30
2022-12-05T02:32:45.899Z,0.20
2022-12-05T02:33:45.887Z,0.30
2022-12-05T02:34:45.874Z,0.30
2022-12-05T02:35:45.867Z,0.40
2022-12-05T02:36:45.849Z,0.30
2022-12-05T02:37:45.838Z,0.20
2022-12-05T02:38:45.828Z,0.30
2022-12-05T02:39:45.813Z,0.30
2022-12-05T02:40:45.798Z,0.30
2022-12-05T02:41:45.788Z,0.30
2022-12-05T02:42:45.805Z,0.30
2022-12-05T02:43:45.765Z,0.30
2022-12-05T02:44:45.751Z,0.20
2022-12-05T02:45:45.797Z,0.30
2022-12-05T02:46:45.728Z,0.20
2022-12-05T02:47:45.716Z,0.30
2022-12-05T02:48:45.703Z,0.20
2022-12-05T02:49:45.697Z,0.30
2022-12-05T02:50:45.681Z,0.20
2022-12-05T02:51:45.667Z,0.30
2022-12-05T02:52:45.653Z,0.20
2022-12-05T02:53:45.644Z,0.30
2022-12-05T02:54:45.644Z,0.30
2022-12-05T02:55:45.619Z,0.30
2022-12-05T02:56:45.604Z,0.30
2022-12-05T02:57:45.593Z,0.20
2022-12-05T02:58:45.607Z,0.30
2022-12-05T02:59:45.570Z,0.20
2022-12-05T03:00:45.558Z,0.30
2022-12-05T03:01:45.635Z,0.20
2022-12-05T03:02:45.530Z,0.30
2022-12-05T03:03:45.559Z,0.20
2022-12-05T03:04:45.580Z,0.30
2022-12-05T03:05:45.496Z,0.30
2022-12-05T03:06:45.492Z,0.20
2022-12-05T03:07:45.515Z,0.30
2022-12-05T03:08:45.458Z,0.30
2022-12-05T03:09:45.451Z,0.30
2022-12-05T03:10:45.433Z,0.20
2022-12-05T03:11:45.429Z,0.30
2022-12-05T03:12:45.409Z,0.20
2022-12-05T03:13:45.397Z,0.20
2022-12-05T03:14:45.413Z,0.30
2022-12-05T03:15:45.373Z,0.20
2022-12-05T03:16:45.502Z,0.40
2022-12-05T03:17:45.349Z,0.20
2022-12-05T03:18:45.335Z,0.30
2022-12-05T03:19:45.325Z,0.30
2022-12-05T03:20:45.311Z,0.20
2022-12-05T03:21:45.299Z,0.30
2022-12-05T03:22:45.287Z,0.30
2022-12-05T03:23:45.279Z,0.30
2022-12-05T03:24:45.259Z,0.20
2022-12-05T03:25:45.248Z,0.20
2022-12-05T03:26:45.234Z,0.30
2022-12-05T03:27:45.223Z,0.20
2022-12-05T03:28:45.210Z,0.30
2022-12-05T03:29:45.197Z,0.20
2022-12-05T03:30:45.300Z,0.30
2022-12-05T03:31:45.172Z,0.20
2022-12-05T03:32:45.157Z,0.30
2022-12-05T03:33:45.146Z,0.20
2022-12-05T03:34:45.132Z,0.20
2022-12-05T03:35:45.119Z,0.30
2022-12-05T03:36:45.109Z,0.20
2022-12-05T03:37:45.093Z,0.30
2022-12-05T03:38:45.078Z,0.30
2022-12-05T03:39:45.067Z,0.30
2022-12-05T03:40:45.052Z,0.20
2022-12-05T03:41:45.041Z,0.30
2022-12-05T03:42:45.029Z,0.20
2022-12-05T03:43:45.014Z,0.20
2022-12-05T03:44:45.003Z,0.30
2022-12-05T03:45:45.095Z,0.20
2022-12-05T03:46:45.001Z,0.30
2022-12-05T03:47:44.962Z,0.10
2022-12-05T03:48:44.948Z,0.30
2022-12-05T03:49:44.936Z,0.30
2022-12-05T03:50:44.924Z,0.40
2022-12-05T03:51:44.912Z,0.20
2022-12-05T03:53:17.606Z,0.30
2022-12-05T03:53:46.885Z,0.30
2022-12-05T03:54:44.874Z,0.20
2022-12-05T03:55:44.865Z,0.30
2022-12-05T03:56:44.849Z,0.20
2022-12-05T03:57:44.842Z,0.30
2022-12-05T03:58:44.825Z,0.20
2022-12-05T03:59:44.825Z,0.30
2022-12-05T04:00:44.800Z,0.20
2022-12-05T04:01:44.892Z,0.20
2022-12-05T04:02:44.802Z,0.30
2022-12-05T04:03:44.863Z,0.20
2022-12-05T04:04:44.751Z,0.30
2022-12-05T04:05:44.739Z,0.20
2022-12-05T04:06:44.729Z,0.30
2022-12-05T04:07:44.799Z,0.30
2022-12-05T04:08:44.702Z,0.20
2022-12-05T04:09:44.692Z,0.30
2022-12-05T04:10:44.678Z,0.20
2022-12-05T04:11:44.667Z,0.30
2022-12-05T04:12:44.654Z,0.20
2022-12-05T04:13:44.643Z,0.30
2022-12-05T04:14:44.628Z,0.20
2022-12-05T04:15:44.712Z,0.20
2022-12-05T04:16:44.606Z,0.20
2022-12-05T04:17:46.953Z,0.20
2022-12-05T04:19:44.567Z,0.20
2022-12-05T04:20:44.558Z,0.30
2022-12-05T04:21:44.543Z,0.20
2022-12-05T04:22:44.532Z,0.20
2022-12-05T04:23:47.759Z,0.30
2022-12-05T04:24:44.510Z,0.20
2022-12-05T04:25:44.494Z,0.20
2022-12-05T04:26:44.483Z,0.20
2022-12-05T04:27:44.468Z,0.20
2022-12-05T04:28:44.460Z,0.30
2022-12-05T04:29:44.445Z,0.30
2022-12-05T04:30:44.474Z,0.30
2022-12-05T04:31:44.421Z,0.20
2022-12-05T04:32:44.411Z,0.30
2022-12-05T04:33:44.398Z,0.20
2022-12-05T04:34:44.414Z,0.30
2022-12-05T04:35:44.375Z,0.20
2022-12-05T04:36:44.364Z,0.30
2022-12-05T04:37:44.349Z,0.30
2022-12-05T04:38:44.338Z,0.20
2022-12-05T04:39:44.325Z,0.30
2022-12-05T04:40:44.319Z,0.20
2022-12-05T04:41:44.300Z,0.30
2022-12-05T04:42:44.300Z,0.20
2022-12-05T04:43:44.279Z,0.30
2022-12-05T04:44:44.271Z,0.30
2022-12-05T04:45:44.256Z,0.30
2022-12-05T04:46:44.303Z,0.30
2022-12-05T04:47:44.234Z,0.20
2022-12-05T04:48:44.218Z,0.30
2022-12-05T04:49:46.926Z,0.20
2022-12-05T04:50:44.220Z,0.30
2022-12-05T04:51:44.180Z,0.30
2022-12-05T04:52:44.168Z,0.30
2022-12-05T04:53:44.153Z,0.30
2022-12-05T04:54:44.144Z,0.20
2022-12-05T04:55:44.129Z,0.30
2022-12-05T04:56:44.119Z,0.20
2022-12-05T04:57:44.106Z,0.30
2022-12-05T04:58:44.093Z,0.20
2022-12-05T04:59:44.081Z,0.30
2022-12-05T05:00:44.068Z,0.20
2022-12-05T05:01:44.121Z,0.30
2022-12-05T05:02:44.096Z,0.30
2022-12-05T05:03:44.035Z,0.30
2022-12-05T05:04:44.020Z,0.30
2022-12-05T05:05:44.007Z,0.30
2022-12-05T05:06:44.023Z,0.40
2022-12-05T05:07:44.029Z,0.30
2022-12-05T05:08:43.970Z,0.30
2022-12-05T05:09:43.959Z,0.30
2022-12-05T05:10:43.946Z,0.20
2022-12-05T05:11:43.936Z,0.30
2022-12-05T05:12:43.924Z,0.30
2022-12-05T05:13:43.911Z,0.40
2022-12-05T05:14:43.898Z,0.30
2022-12-05T05:15:43.999Z,0.30
2022-12-05T05:16:43.874Z,0.30
2022-12-05T05:17:43.858Z,0.30
2022-12-05T05:18:43.848Z,0.20
2022-12-05T05:19:43.833Z,0.20
2022-12-05T05:20:43.822Z,0.30
2022-12-05T05:21:43.808Z,0.20
2022-12-05T05:22:43.822Z,0.30
2022-12-05T05:23:43.782Z,0.20
2022-12-05T05:24:43.769Z,0.30
2022-12-05T05:25:43.758Z,0.20
2022-12-05T05:26:43.744Z,0.20
2022-12-05T05:27:43.730Z,0.30
2022-12-05T05:28:43.721Z,0.20
2022-12-05T05:29:43.705Z,0.30
2022-12-05T05:30:43.693Z,0.20
2022-12-05T05:31:43.733Z,0.30
2022-12-05T05:32:43.669Z,0.30
2022-12-05T05:33:43.656Z,0.30
2022-12-05T05:34:43.642Z,0.30
2022-12-05T05:35:43.626Z,0.30
2022-12-05T05:36:43.616Z,0.30
2022-12-05T05:37:43.603Z,0.20
2022-12-05T05:38:43.619Z,0.30
2022-12-05T05:39:43.579Z,0.20
2022-12-05T05:40:43.568Z,0.20
2022-12-05T05:41:43.557Z,0.20
2022-12-05T05:42:43.544Z,0.30
2022-12-05T05:43:43.531Z,0.30
2022-12-05T05:44:43.519Z,0.30
2022-12-05T05:45:43.504Z,0.30
2022-12-05T05:46:43.603Z,0.20
2022-12-05T05:47:43.480Z,0.30
2022-12-05T05:48:43.466Z,0.20
2022-12-05T05:49:43.452Z,0.30
2022-12-05T05:50:43.442Z,0.30
2022-12-05T05:51:43.426Z,0.20
2022-12-05T05:52:43.415Z,0.30
2022-12-05T05:53:43.402Z,0.30
2022-12-05T05:54:43.417Z,0.30
2022-12-05T05:55:43.377Z,0.30
2022-12-05T05:56:43.364Z,0.30
2022-12-05T05:57:43.349Z,0.30
2022-12-05T05:58:43.338Z,0.20
2022-12-05T05:59:43.325Z,0.30
2022-12-05T06:00:43.317Z,0.20
2022-12-05T06:01:43.297Z,0.30
2022-12-05T06:02:43.466Z,0.30
2022-12-05T06:03:43.450Z,0.30
2022-12-05T06:04:43.260Z,0.30
2022-12-05T06:05:44.710Z,0.30
2022-12-05T06:06:43.231Z,0.30
2022-12-05T06:07:43.322Z,0.20
2022-12-05T06:08:43.205Z,0.30
2022-12-05T06:09:43.192Z,0.20
2022-12-05T06:10:43.206Z,0.30
2022-12-05T06:11:43.166Z,0.30
2022-12-05T06:12:43.153Z,0.30
2022-12-05T06:13:43.140Z,0.30
2022-12-05T06:14:43.127Z,0.30
2022-12-05T06:15:43.113Z,0.30
2022-12-05T06:16:43.282Z,0.30
2022-12-05T06:17:43.087Z,0.30
2022-12-05T06:18:43.075Z,0.30
2022-12-05T06:19:43.061Z,0.30
2022-12-05T06:20:43.048Z,0.40
2022-12-05T06:21:43.033Z,0.30
2022-12-05T06:22:43.026Z,0.30
2022-12-05T06:23:43.018Z,0.30
2022-12-05T06:24:42.995Z,0.30
2022-12-05T06:25:42.982Z,0.20
2022-12-05T06:26:42.995Z,0.40
2022-12-05T06:27:42.955Z,0.30
2022-12-05T06:28:42.943Z,0.30
2022-12-05T06:29:42.928Z,0.30
2022-12-05T06:30:42.918Z,0.30
2022-12-05T06:31:42.976Z,0.30
2022-12-05T06:32:42.892Z,0.20
2022-12-05T06:33:42.877Z,0.30
2022-12-05T06:34:42.872Z,0.20
2022-12-05T06:35:42.853Z,0.30
2022-12-05T06:36:42.841Z,0.30
2022-12-05T06:37:42.826Z,0.30
2022-12-05T06:38:42.846Z,0.30
2022-12-05T06:39:42.807Z,0.20
2022-12-05T06:40:42.792Z,0.30
2022-12-05T06:41:42.777Z,0.30
2022-12-05T06:42:42.804Z,0.30
2022-12-05T06:43:42.755Z,0.20
2022-12-05T06:44:42.741Z,0.30
2022-12-05T06:45:42.768Z,0.30
2022-12-05T06:46:42.716Z,0.20
2022-12-05T06:47:42.703Z,0.30
2022-12-05T06:48:42.698Z,0.30
2022-12-05T06:49:42.692Z,0.30
2022-12-05T06:50:42.671Z,0.20
2022-12-05T06:51:42.653Z,0.30
2022-12-05T06:52:42.642Z,0.30
2022-12-05T06:53:42.628Z,0.30
2022-12-05T06:54:42.619Z,0.30
2022-12-05T06:55:42.603Z,0.20
2022-12-05T06:56:42.594Z,0.20
2022-12-05T06:57:42.579Z,0.20
2022-12-05T06:58:42.591Z,0.30
2022-12-05T06:59:42.553Z,0.30
2022-12-05T07:00:42.568Z,0.30
2022-12-05T07:01:42.927Z,0.30
2022-12-05T07:02:42.576Z,0.40
2022-12-05T07:03:42.501Z,0.30
2022-12-05T07:04:42.492Z,0.30
2022-12-05T07:05:42.477Z,0.20
2022-12-05T07:06:46.197Z,0.20
2022-12-05T07:07:42.489Z,0.30
2022-12-05T07:08:42.448Z,0.30
2022-12-05T07:09:42.427Z,0.30
2022-12-05T07:10:42.462Z,0.20
2022-12-05T07:11:42.403Z,0.30
2022-12-05T07:12:42.392Z,0.30
2022-12-05T07:13:42.377Z,0.30
2022-12-05T07:14:50.295Z,0.30
2022-12-05T07:15:44.352Z,0.20
2022-12-05T07:16:42.403Z,0.30
2022-12-05T07:17:42.328Z,0.20
2022-12-05T07:18:42.323Z,0.30
2022-12-05T07:19:42.303Z,0.30
2022-12-05T07:21:10.547Z,0.30
2022-12-05T07:21:44.279Z,0.30
2022-12-05T07:22:42.268Z,0.30
2022-12-05T07:23:42.255Z,0.20
2022-12-05T07:24:42.247Z,0.20
2022-12-05T07:25:42.230Z,0.30
2022-12-05T07:26:42.219Z,0.30
2022-12-05T07:27:42.207Z,0.30
2022-12-05T07:28:42.200Z,0.30
2022-12-05T07:29:42.179Z,0.30
2022-12-05T07:30:42.200Z,0.30
2022-12-05T07:31:42.211Z,0.30
2022-12-05T07:32:42.143Z,0.30
2022-12-05T07:33:42.130Z,0.30
2022-12-05T07:34:42.120Z,0.30
2022-12-05T07:35:42.103Z,0.30
2022-12-05T07:36:42.093Z,0.30
2022-12-05T07:37:42.078Z,0.20
2022-12-05T07:38:42.065Z,0.30
2022-12-05T07:39:42.051Z,11.50
2022-12-05T07:40:42.038Z,21.50
2022-12-05T07:41:42.028Z,1.10
2022-12-05T07:42:42.012Z,1.20
2022-12-05T07:43:41.997Z,1.20
2022-12-05T07:44:41.985Z,1.10
2022-12-05T07:45:42.041Z,1.29
2022-12-05T07:46:42.002Z,1.10
2022-12-05T07:47:42.026Z,1.20
2022-12-05T07:48:41.932Z,1.10
2022-12-05T07:49:41.916Z,1.29
2022-12-05T07:50:41.907Z,60.79
2022-12-05T07:51:41.895Z,1.20
2022-12-05T07:52:41.881Z,1.00
2022-12-05T07:53:41.865Z,1.20
2022-12-05T07:54:41.854Z,1.20
2022-12-05T07:55:41.839Z,1.00
2022-12-05T07:56:47.417Z,1.29
2022-12-05T07:57:41.811Z,1.00
2022-12-05T07:58:41.801Z,1.20
2022-12-05T07:59:41.785Z,1.00
2022-12-05T08:00:41.776Z,1.20
2022-12-05T08:01:41.865Z,71.19
2022-12-05T08:02:41.858Z,1.20
2022-12-05T08:03:41.733Z,1.00
2022-12-05T08:04:41.723Z,1.10
2022-12-05T08:05:41.707Z,1.10
2022-12-05T08:06:41.696Z,1.10
2022-12-05T08:07:41.717Z,1.00
2022-12-05T08:08:41.672Z,1.00
2022-12-05T08:09:41.654Z,1.00
2022-12-05T08:10:41.642Z,0.90
2022-12-05T08:11:41.631Z,11.69
2022-12-05T08:12:41.617Z,15.60
2022-12-05T08:13:41.600Z,1.00
2022-12-05T08:14:41.590Z,0.90
2022-12-05T08:15:41.575Z,1.00
2022-12-05T08:16:41.615Z,0.90
2022-12-05T08:17:41.548Z,1.00
2022-12-05T08:18:47.572Z,0.80
2022-12-05T08:19:41.521Z,0.90
2022-12-05T08:20:41.511Z,0.90
2022-12-05T08:21:41.496Z,1.00
2022-12-05T08:22:41.485Z,66.50
2022-12-05T08:23:41.472Z,1.00
2022-12-05T08:24:41.460Z,0.80
2022-12-05T08:25:41.444Z,0.90
2022-12-05T08:26:41.434Z,0.80
2022-12-05T08:27:41.420Z,1.00
2022-12-05T08:28:41.408Z,0.80
2022-12-05T08:29:41.399Z,0.90
2022-12-05T08:30:41.472Z,0.80
2022-12-05T08:31:41.371Z,1.10
2022-12-05T08:32:41.359Z,1.00
2022-12-05T08:33:41.352Z,65.40
2022-12-05T08:34:41.361Z,1.00
2022-12-05T08:35:41.319Z,1.00
2022-12-05T08:36:41.306Z,0.80
2022-12-05T08:37:41.299Z,0.90
2022-12-05T08:38:41.283Z,0.80
2022-12-05T08:39:41.269Z,0.80
2022-12-05T08:40:41.255Z,0.70
2022-12-05T08:41:41.251Z,0.90
2022-12-05T08:42:41.237Z,0.90
2022-12-05T08:43:41.218Z,12.10
2022-12-05T08:44:41.207Z,11.19
2022-12-05T08:45:41.255Z,0.80
2022-12-05T08:46:41.273Z,0.90
2022-12-05T08:47:41.167Z,0.90
2022-12-05T08:48:41.155Z,0.80
2022-12-05T08:49:41.145Z,0.90
2022-12-05T08:50:41.157Z,1.10
2022-12-05T08:51:41.119Z,0.80
2022-12-05T08:52:41.105Z,1.20
2022-12-05T08:53:44.602Z,0.80
2022-12-05T08:54:41.078Z,66.69
2022-12-05T08:55:41.067Z,1.00
2022-12-05T08:56:41.054Z,1.00
2022-12-05T08:57:41.043Z,0.90
2022-12-05T08:58:41.043Z,0.90
2022-12-05T08:59:41.017Z,0.80
2022-12-05T09:00:41.004Z,0.90
2022-12-05T09:01:41.038Z,0.80
2022-12-05T09:02:41.060Z,1.00
2022-12-05T09:03:46.036Z,0.80
2022-12-05T09:04:40.952Z,1.60
2022-12-05T09:05:40.939Z,46.70
2022-12-05T09:06:40.960Z,0.80
2022-12-05T09:07:41.038Z,0.90
2022-12-05T09:08:40.908Z,0.80
2022-12-05T09:09:40.892Z,1.00
2022-12-05T09:10:40.877Z,0.80
2022-12-05T09:11:40.988Z,0.90
2022-12-05T09:12:40.853Z,0.80
2022-12-05T09:13:40.841Z,1.00
2022-12-05T09:14:40.827Z,0.80
2022-12-05T09:15:40.871Z,25.29
2022-12-05T09:16:40.801Z,8.39
2022-12-05T09:17:40.790Z,0.90
2022-12-05T09:18:40.775Z,0.90
2022-12-05T09:19:40.770Z,1.00
2022-12-05T09:20:40.750Z,0.90
2022-12-05T09:21:40.738Z,1.00
2022-12-05T09:22:40.747Z,0.80
2022-12-05T09:23:40.711Z,0.80
2022-12-05T09:24:40.699Z,0.80
2022-12-05T09:25:40.686Z,0.90
2022-12-05T09:26:40.676Z,65.40
2022-12-05T09:27:40.671Z,0.70
2022-12-05T09:28:40.648Z,0.90
2022-12-05T09:29:40.638Z,0.80
2022-12-05T09:30:40.668Z,0.90
2022-12-05T09:31:40.703Z,0.70
2022-12-05T09:32:40.597Z,0.90
2022-12-05T09:33:40.584Z,0.90
2022-12-05T09:34:40.574Z,1.00
2022-12-05T09:35:40.560Z,0.80
2022-12-05T09:36:40.547Z,4.30
2022-12-05T09:37:40.622Z,37.90
2022-12-05T09:38:40.561Z,0.90
2022-12-05T09:39:40.509Z,0.80
2022-12-05T09:40:40.495Z,0.90
2022-12-05T09:41:40.486Z,0.80
2022-12-05T09:42:40.468Z,0.90
2022-12-05T09:43:40.457Z,0.70
2022-12-05T09:44:40.443Z,0.90
2022-12-05T09:45:40.433Z,0.90
2022-12-05T09:46:40.488Z,0.90
2022-12-05T09:47:40.405Z,30.29
2022-12-05T09:48:40.392Z,7.19
2022-12-05T09:49:40.381Z,0.80
2022-12-05T09:50:40.366Z,0.80
2022-12-05T09:51:40.356Z,0.80
2022-12-05T09:52:40.371Z,0.90
2022-12-05T09:53:40.332Z,0.70
2022-12-05T09:54:40.347Z,0.90
2022-12-05T09:55:40.306Z,0.60
2022-12-05T09:56:40.292Z,0.80
2022-12-05T09:57:40.282Z,0.80
2022-12-05T09:58:40.265Z,61.20
2022-12-05T09:59:40.255Z,0.90
2022-12-05T10:00:40.239Z,0.80
2022-12-05T10:01:40.286Z,0.70
2022-12-05T10:02:40.215Z,0.80
2022-12-05T10:03:40.207Z,0.70
2022-12-05T10:04:40.346Z,1.00
2022-12-05T10:05:40.186Z,0.80
2022-12-05T10:06:40.163Z,0.90
2022-12-05T10:07:40.254Z,0.80
2022-12-05T10:08:40.137Z,8.30
2022-12-05T10:09:40.178Z,35.50
2022-12-05T10:10:40.147Z,0.90
2022-12-05T10:11:40.102Z,0.80
2022-12-05T10:12:40.087Z,0.90
2022-12-05T10:13:40.075Z,0.70
2022-12-05T10:14:40.061Z,0.80
2022-12-05T10:15:42.819Z,0.80
2022-12-05T10:16:40.115Z,0.80
2022-12-05T10:17:40.024Z,0.80
2022-12-05T10:18:40.012Z,0.80
2022-12-05T10:19:39.998Z,37.09
2022-12-05T10:20:39.984Z,86.80
2022-12-05T10:21:39.973Z,86.09
2022-12-05T10:22:39.963Z,86.19
2022-12-05T10:23:57.007Z,87.40
2022-12-05T10:24:41.933Z,85.59
2022-12-05T10:25:39.926Z,86.50
2022-12-05T10:26:39.931Z,87.50
2022-12-05T10:27:40.626Z,87.00
2022-12-05T10:28:39.901Z,85.69
2022-12-05T10:29:39.871Z,85.30
2022-12-05T10:30:39.862Z,87.30
2022-12-05T10:31:39.947Z,86.50
2022-12-05T10:32:39.833Z,84.80
2022-12-05T10:33:39.819Z,86.40
2022-12-05T10:34:39.804Z,86.90
2022-12-05T10:35:39.793Z,87.69
2022-12-05T10:36:39.781Z,86.50
2022-12-05T10:37:39.769Z,87.30
2022-12-05T10:38:39.754Z,87.30
2022-12-05T10:39:39.745Z,86.69
2022-12-05T10:40:39.728Z,86.00
2022-12-05T10:41:39.715Z,87.59
2022-12-05T10:42:39.730Z,88.00
2022-12-05T10:43:39.690Z,84.40
2022-12-05T10:44:39.678Z,83.59
2022-12-05T10:45:39.665Z,81.80
2022-12-05T10:46:39.776Z,83.69
2022-12-05T10:47:39.639Z,80.40
2022-12-05T10:48:39.624Z,85.69
2022-12-05T10:49:39.612Z,83.00
2022-12-05T10:50:39.599Z,83.90
2022-12-05T10:51:39.587Z,82.59
2022-12-05T10:52:39.572Z,83.59
2022-12-05T10:53:39.566Z,84.09
2022-12-05T10:54:39.547Z,81.50
2022-12-05T10:55:39.535Z,82.19
2022-12-05T10:56:39.527Z,84.09
2022-12-05T10:57:39.508Z,83.19
2022-12-05T10:58:39.522Z,81.19
2022-12-05T10:59:39.483Z,78.00
2022-12-05T11:00:39.469Z,79.50
2022-12-05T11:01:39.496Z,78.90
2022-12-05T11:02:39.454Z,77.69
2022-12-05T11:03:39.433Z,75.50
2022-12-05T11:04:39.489Z,77.40
2022-12-05T11:05:39.556Z,76.09
2022-12-05T11:06:39.394Z,74.40
2022-12-05T11:07:39.508Z,74.59
2022-12-05T11:09:03.874Z,73.69
2022-12-05T11:09:41.359Z,72.80
2022-12-05T11:10:39.344Z,70.80
2022-12-05T11:11:39.333Z,72.40
2022-12-05T11:12:39.322Z,72.80
2022-12-05T11:13:39.306Z,73.50
2022-12-05T11:14:39.316Z,74.50
2022-12-05T11:15:39.331Z,72.09
2022-12-05T11:16:39.351Z,73.09
2022-12-05T11:17:39.258Z,71.00
2022-12-05T11:18:39.241Z,70.30
2022-12-05T11:19:39.231Z,70.19
2022-12-05T11:20:39.218Z,69.40
2022-12-05T11:21:39.216Z,71.19
2022-12-05T11:22:41.323Z,69.30
2022-12-05T11:23:39.182Z,71.30
2022-12-05T11:24:39.165Z,70.19
2022-12-05T11:25:39.156Z,71.30
2022-12-05T11:26:39.141Z,71.09
2022-12-05T11:27:39.129Z,70.19
2022-12-05T11:28:39.118Z,71.69
2022-12-05T11:29:39.104Z,70.90
2022-12-05T11:30:39.125Z,70.50
2022-12-05T11:31:39.095Z,70.50
2022-12-05T11:32:39.064Z,70.69
2022-12-05T11:33:39.054Z,69.90
2022-12-05T11:34:39.042Z,70.09
2022-12-05T11:35:39.029Z,69.90
2022-12-05T11:36:39.016Z,68.40
2022-12-05T11:37:39.002Z,68.09
2022-12-05T11:38:38.987Z,68.00
2022-12-05T11:39:38.976Z,68.69
2022-12-05T11:40:39.057Z,66.40
2022-12-05T11:41:38.951Z,67.00
2022-12-05T11:42:38.937Z,66.09
2022-12-05T11:43:38.926Z,66.30
2022-12-05T11:44:38.913Z,65.90
2022-12-05T11:45:38.902Z,66.19
2022-12-05T11:46:38.982Z,65.30
2022-12-05T11:47:38.874Z,65.80
2022-12-05T11:48:38.860Z,66.59
2022-12-05T11:49:38.853Z,66.90
2022-12-05T11:50:38.833Z,70.30
2022-12-05T11:51:38.823Z,70.30
2022-12-05T11:52:40.863Z,69.59
2022-12-05T11:53:38.797Z,72.00
2022-12-05T11:55:06.568Z,70.00
2022-12-05T11:55:40.771Z,70.30
2022-12-05T11:56:38.765Z,71.80
2022-12-05T11:57:38.746Z,70.80
2022-12-05T11:58:38.732Z,71.30
2022-12-05T11:59:38.720Z,72.69
2022-12-05T12:00:38.759Z,70.90
2022-12-05T12:01:38.767Z,75.00
2022-12-05T12:02:38.885Z,73.40
2022-12-05T12:03:38.726Z,73.80
2022-12-05T12:04:38.654Z,72.69
2022-12-05T12:05:38.645Z,73.80
2022-12-05T12:06:38.628Z,72.59
2022-12-05T12:07:38.641Z,74.09
2022-12-05T12:08:38.603Z,75.09
2022-12-05T12:09:38.590Z,74.19
2022-12-05T12:10:38.577Z,74.09
2022-12-05T12:11:38.565Z,73.19
2022-12-05T12:12:38.550Z,72.90
2022-12-05T12:13:38.541Z,71.80
2022-12-05T12:14:38.524Z,72.40
2022-12-05T12:15:38.513Z,73.09
2022-12-05T12:16:38.566Z,73.00
2022-12-05T12:17:38.488Z,72.30
2022-12-05T12:18:38.495Z,73.59
2022-12-05T12:20:38.451Z,75.69
2022-12-05T12:21:38.969Z,76.09
2022-12-05T12:22:38.423Z,77.09
2022-12-05T12:23:38.411Z,77.90
2022-12-05T12:24:38.395Z,77.69
2022-12-05T12:25:38.385Z,77.00
2022-12-05T12:26:38.370Z,77.40
2022-12-05T12:27:38.360Z,78.19
2022-12-05T12:28:38.349Z,77.59
2022-12-05T12:29:38.333Z,77.40
2022-12-05T12:30:38.319Z,77.30
2022-12-05T12:31:38.366Z,77.19
2022-12-05T12:32:38.296Z,76.30
2022-12-05T12:33:38.283Z,76.80
2022-12-05T12:34:38.293Z,75.90
2022-12-05T12:35:38.259Z,75.19
2022-12-05T12:36:38.242Z,73.09
2022-12-05T12:37:38.232Z,72.19
2022-12-05T12:38:38.216Z,71.90
2022-12-05T12:39:38.205Z,73.90
2022-12-05T12:40:38.198Z,73.50
2022-12-05T12:41:38.181Z,75.19
2022-12-05T12:42:38.167Z,76.30
2022-12-05T12:43:53.569Z,76.50
2022-12-05T12:44:40.142Z,76.09
2022-12-05T12:45:38.211Z,76.69
2022-12-05T12:46:38.223Z,77.50
2022-12-05T12:47:38.104Z,77.80
2022-12-05T12:48:38.092Z,78.09
2022-12-05T12:49:38.078Z,78.09
2022-12-05T12:50:43.340Z,76.30
2022-12-05T12:51:38.051Z,76.00
2022-12-05T12:52:38.041Z,77.00
2022-12-05T12:53:38.025Z,76.40
2022-12-05T12:55:02.859Z,77.40
2022-12-05T12:55:40.000Z,77.80
2022-12-05T12:56:37.989Z,78.09
2022-12-05T12:57:37.973Z,76.90
2022-12-05T12:58:37.970Z,78.50
2022-12-05T12:59:37.949Z,78.59
2022-12-05T13:00:37.937Z,79.50
2022-12-05T13:01:37.980Z,77.80
2022-12-05T13:02:38.022Z,79.09
2022-12-05T13:03:37.898Z,79.00
2022-12-05T13:04:37.887Z,79.69
2022-12-05T13:05:37.871Z,79.30
2022-12-05T13:06:37.884Z,78.59
2022-12-05T13:07:37.896Z,80.09
2022-12-05T13:08:37.836Z,15.60
2022-12-05T13:09:37.820Z,15.19
2022-12-05T13:10:37.809Z,15.39
2022-12-05T13:11:37.799Z,16.39
2022-12-05T13:12:37.786Z,15.30
2022-12-05T13:13:37.771Z,15.30
2022-12-05T13:14:37.758Z,15.39
2022-12-05T13:15:37.744Z,15.39